createdAt,value
2022-11-22T00:01:04.313Z,3.60
2022-11-22T00:03:32.596Z,3.47
2022-11-22T00:06:00.595Z,3.90
2022-11-22T00:08:29.654Z,3.83
2022-11-22T00:10:57.626Z,3.60
2022-11-22T00:13:27.108Z,3.63
2022-11-22T00:16:02.836Z,3.53
2022-11-22T00:18:31.577Z,4.13
2022-11-22T00:21:06.033Z,4.27
2022-11-22T00:23:34.414Z,4.37
2022-11-22T00:26:02.383Z,3.90
2022-11-22T00:28:31.635Z,4.20
2022-11-22T00:30:59.727Z,3.77
2022-11-22T00:33:27.847Z,3.73
2022-11-22T00:35:55.786Z,3.93
2022-11-22T00:38:23.922Z,3.50
2022-11-22T00:40:51.921Z,3.47
2022-11-22T00:43:19.870Z,3.77
2022-11-22T00:45:49.975Z,3.80
2022-11-22T00:48:18.217Z,3.00
2022-11-22T00:50:46.346Z,3.07
2022-11-22T00:53:14.431Z,3.20
2022-11-22T00:55:42.453Z,2.77
2022-11-22T00:58:10.354Z,2.73
2022-11-22T01:00:38.533Z,2.80
2022-11-22T01:03:11.732Z,2.63
2022-11-22T01:05:40.210Z,3.07
2022-11-22T01:08:08.582Z,2.97
2022-11-22T01:10:37.364Z,2.80
2022-11-22T01:13:06.306Z,2.93
2022-11-22T01:15:34.525Z,3.30
2022-11-22T01:18:02.663Z,3.23
2022-11-22T01:20:32.060Z,2.43
2022-11-22T01:23:00.072Z,3.40
2022-11-22T01:25:28.082Z,2.27
2022-11-22T01:27:56.089Z,2.80
2022-11-22T01:30:24.140Z,2.77
2022-11-22T01:32:52.356Z,1.80
2022-11-22T01:35:20.456Z,2.63
2022-11-22T01:37:49.730Z,3.33
2022-11-22T01:40:17.772Z,2.50
2022-11-22T01:42:49.455Z,3.07
2022-11-22T01:45:39.134Z,3.33
2022-11-22T01:48:14.773Z,2.53
2022-11-22T01:50:45.696Z,3.33
2022-11-22T01:53:18.292Z,2.80
2022-11-22T01:55:47.324Z,2.83
2022-11-22T01:58:16.711Z,3.30
2022-11-22T02:00:45.070Z,2.70
2022-11-22T02:03:16.162Z,3.23
2022-11-22T02:05:44.271Z,3.17
2022-11-22T02:08:18.865Z,2.60
2022-11-22T02:10:51.871Z,2.77
2022-11-22T02:13:21.592Z,3.10
2022-11-22T02:15:50.193Z,2.50
2022-11-22T02:18:18.504Z,2.73
2022-11-22T02:20:47.277Z,3.67
2022-11-22T02:23:25.567Z,3.03
2022-11-22T02:25:57.238Z,2.97
2022-11-22T02:28:26.126Z,2.80
2022-11-22T02:30:54.065Z,2.20
2022-11-22T02:33:22.255Z,2.93
2022-11-22T02:35:50.621Z,2.80
2022-11-22T02:38:21.749Z,2.97
2022-11-22T02:40:54.538Z,3.03
2022-11-22T02:43:26.872Z,3.10
2022-11-22T02:45:55.079Z,2.60
2022-11-22T02:48:23.178Z,2.73
2022-11-22T02:50:51.162Z,3.13
2022-11-22T02:53:19.087Z,3.07
2022-11-22T02:55:47.008Z,3.13
2022-11-22T02:58:14.917Z,2.20
2022-11-22T03:00:44.354Z,3.30
2022-11-22T03:03:12.394Z,2.30
2022-11-22T03:05:40.292Z,2.80
2022-11-22T03:08:08.212Z,2.33
2022-11-22T03:10:36.346Z,2.20
2022-11-22T03:13:04.281Z,1.97
2022-11-22T03:15:32.179Z,2.20
2022-11-22T03:18:02.588Z,2.33
2022-11-22T03:20:30.860Z,2.70
2022-11-22T03:23:00.913Z,1.97
2022-11-22T03:25:29.202Z,2.23
2022-11-22T03:27:57.319Z,2.23
2022-11-22T03:30:25.273Z,2.27
2022-11-22T03:32:53.231Z,2.40
2022-11-22T03:35:22.714Z,2.50
2022-11-22T03:37:50.799Z,2.63
2022-11-22T03:40:18.803Z,2.17
2022-11-22T03:42:46.723Z,1.90
2022-11-22T03:45:14.720Z,2.60
2022-11-22T03:47:42.749Z,1.67
2022-11-22T03:50:11.263Z,1.97
2022-11-22T03:52:40.513Z,1.60
2022-11-22T03:55:09.366Z,1.67
2022-11-22T03:57:37.291Z,1.73
2022-11-22T04:00:06.433Z,1.53
2022-11-22T04:02:34.537Z,1.77
2022-11-22T04:05:03.389Z,1.57
2022-11-22T04:07:31.478Z,1.87
2022-11-22T04:10:00.955Z,1.47
2022-11-22T04:12:30.370Z,1.77
2022-11-22T04:15:09.384Z,1.70
2022-11-22T04:17:41.860Z,1.77
2022-11-22T04:20:29.835Z,1.80
2022-11-22T04:22:58.157Z,1.67
2022-11-22T04:25:27.455Z,1.97
2022-11-22T04:27:55.855Z,1.50
2022-11-22T04:30:44.669Z,2.10
2022-11-22T04:33:12.259Z,2.17
2022-11-22T04:35:40.765Z,2.00
2022-11-22T04:38:09.130Z,2.07
2022-11-22T04:40:38.996Z,2.17
2022-11-22T04:43:25.384Z,2.33
2022-11-22T04:45:53.788Z,2.63
2022-11-22T04:48:22.047Z,2.37
2022-11-22T04:51:07.202Z,2.13
2022-11-22T04:53:35.175Z,2.30
2022-11-22T04:56:04.691Z,1.97
2022-11-22T04:58:32.826Z,2.40
2022-11-22T05:01:00.920Z,2.33
2022-11-22T05:03:29.180Z,1.90
2022-11-22T05:05:57.192Z,2.40
2022-11-22T05:08:25.117Z,2.70
2022-11-22T05:10:59.376Z,2.27
2022-11-22T05:13:31.246Z,2.60
2022-11-22T05:16:00.125Z,1.93
2022-11-22T05:18:29.397Z,2.27
2022-11-22T05:20:57.648Z,2.47
2022-11-22T05:23:43.221Z,2.40
2022-11-22T05:26:11.935Z,2.63
2022-11-22T05:28:41.555Z,2.43
2022-11-22T05:31:11.509Z,2.20
2022-11-22T05:33:41.714Z,2.83
2022-11-22T05:36:10.762Z,2.43
2022-11-22T05:38:39.553Z,2.33
2022-11-22T05:41:09.806Z,1.97
2022-11-22T05:43:38.165Z,2.40
2022-11-22T05:46:08.895Z,2.00
2022-11-22T05:48:37.344Z,2.40
2022-11-22T05:51:06.174Z,2.43
2022-11-22T05:53:34.506Z,2.23
2022-11-22T05:56:06.218Z,2.27
2022-11-22T05:58:34.624Z,2.60
2022-11-22T06:01:08.963Z,3.10
2022-11-22T06:03:37.808Z,3.07
2022-11-22T06:06:07.185Z,3.67
2022-11-22T06:08:37.264Z,3.67
2022-11-22T06:11:06.348Z,3.53
2022-11-22T06:13:36.226Z,4.23
2022-11-22T06:16:05.051Z,3.73
2022-11-22T06:18:34.919Z,3.90
2022-11-22T06:21:05.747Z,4.13
2022-11-22T06:23:33.799Z,3.30
2022-11-22T06:26:03.558Z,3.60
2022-11-22T06:28:33.018Z,3.60
2022-11-22T06:31:02.762Z,3.77
2022-11-22T06:33:30.875Z,3.33
2022-11-22T06:36:05.052Z,3.40
2022-11-22T06:38:33.527Z,3.93
2022-11-22T06:41:02.548Z,3.73
2022-11-22T06:43:31.298Z,3.33
2022-11-22T06:45:59.562Z,3.67
2022-11-22T06:48:27.993Z,3.57
2022-11-22T06:50:59.822Z,3.47
2022-11-22T06:53:46.153Z,3.40
2022-11-22T06:56:17.398Z,3.60
2022-11-22T06:58:45.758Z,3.17
2022-11-22T07:01:16.364Z,3.13
2022-11-22T07:03:48.184Z,3.70
2022-11-22T07:06:18.199Z,3.50
2022-11-22T07:08:47.962Z,3.70
2022-11-22T07:11:17.815Z,3.50
2022-11-22T07:13:46.504Z,3.27
2022-11-22T07:16:15.854Z,3.87
2022-11-22T07:18:44.239Z,3.90
2022-11-22T07:21:13.979Z,3.70
2022-11-22T07:23:43.311Z,3.60
2022-11-22T07:26:13.556Z,3.13
2022-11-22T07:28:41.745Z,3.80
2022-11-22T07:31:11.494Z,3.00
2022-11-22T07:33:40.079Z,3.27
2022-11-22T07:36:09.496Z,3.70
2022-11-22T07:38:37.547Z,2.90
2022-11-22T07:41:06.277Z,3.50
2022-11-22T07:43:36.082Z,3.10
2022-11-22T07:46:06.019Z,3.13
2022-11-22T07:48:33.964Z,3.07
2022-11-22T07:51:06.133Z,2.93
2022-11-22T07:53:34.982Z,2.83
2022-11-22T07:56:04.131Z,2.70
2022-11-22T07:58:32.560Z,3.10
2022-11-22T08:01:06.446Z,3.00
2022-11-22T08:03:34.915Z,3.27
2022-11-22T08:06:04.309Z,2.47
2022-11-22T08:08:32.447Z,2.80
2022-11-22T08:11:00.634Z,3.53
2022-11-22T08:13:29.189Z,2.60
2022-11-22T08:16:05.019Z,2.37
2022-11-22T08:18:35.530Z,2.50
2022-11-22T08:21:05.241Z,2.53
2022-11-22T08:23:33.155Z,2.73
2022-11-22T08:26:01.257Z,3.13
2022-11-22T08:28:29.621Z,3.10
2022-11-22T08:31:01.802Z,3.50
2022-11-22T08:33:29.978Z,3.50
2022-11-22T08:35:59.221Z,2.97
2022-11-22T08:38:27.468Z,2.97
2022-11-22T08:40:56.223Z,3.57
2022-11-22T08:43:24.744Z,3.17
2022-11-22T08:45:56.169Z,3.40
2022-11-22T08:48:25.270Z,3.47
2022-11-22T08:50:53.962Z,3.57
2022-11-22T08:53:24.108Z,4.03
2022-11-22T08:55:52.661Z,3.50
2022-11-22T08:58:20.704Z,3.50
2022-11-22T09:00:48.783Z,3.37
2022-11-22T09:03:16.948Z,3.27
2022-11-22T09:08:36.714Z,3.57
2022-11-22T09:11:09.116Z,3.73
2022-11-22T09:13:37.600Z,3.10
2022-11-22T09:16:07.104Z,3.40
2022-11-22T09:18:35.629Z,3.03
2022-11-22T09:21:05.833Z,3.20
2022-11-22T09:23:35.760Z,2.90
2022-11-22T09:26:05.994Z,2.97
2022-11-22T09:28:34.163Z,2.73
2022-11-22T09:31:03.359Z,3.00
2022-11-22T09:33:32.409Z,3.50
2022-11-22T09:36:02.138Z,3.83
2022-11-22T09:38:30.407Z,3.33
2022-11-22T09:41:00.652Z,2.77
2022-11-22T09:43:44.019Z,2.57
2022-11-22T09:46:31.207Z,2.90
2022-11-22T09:49:22.108Z,2.50
2022-11-22T09:51:55.276Z,2.80
2022-11-22T09:54:28.076Z,2.60
2022-11-22T09:57:03.539Z,2.60
2022-11-22T09:59:35.504Z,2.30
2022-11-22T10:02:18.354Z,2.20
2022-11-22T10:04:52.831Z,2.57
2022-11-22T10:07:26.049Z,2.40
2022-11-22T10:10:00.729Z,2.50
2022-11-22T10:12:36.837Z,2.50
2022-11-22T10:15:12.877Z,3.83
2022-11-22T10:17:53.714Z,3.73
2022-11-22T10:20:24.020Z,2.40
2022-11-22T10:22:55.806Z,1.90
2022-11-22T10:25:28.632Z,2.03
2022-11-22T10:28:01.722Z,2.00
2022-11-22T10:30:36.842Z,2.70
2022-11-22T10:33:14.178Z,1.90
2022-11-22T10:36:01.842Z,2.10
2022-11-22T10:38:51.034Z,1.77
2022-11-22T10:41:31.811Z,1.87
2022-11-22T10:44:17.390Z,2.03
2022-11-22T10:46:56.904Z,2.10
2022-11-22T10:49:38.752Z,1.90
2022-11-22T10:52:17.132Z,2.10
2022-11-22T10:54:51.583Z,2.60
2022-11-22T10:57:26.746Z,2.00
2022-11-22T11:00:06.726Z,2.57
2022-11-22T11:02:51.422Z,2.20
2022-11-22T11:05:33.920Z,2.10
2022-11-22T11:08:15.484Z,2.10
2022-11-22T11:10:50.394Z,2.23
2022-11-22T11:13:24.656Z,2.20
2022-11-22T11:15:56.668Z,2.43
2022-11-22T11:18:32.162Z,2.80
2022-11-22T11:21:00.232Z,2.30
2022-11-22T11:23:28.199Z,2.40
2022-11-22T11:25:56.207Z,2.00
2022-11-22T11:28:27.115Z,2.33
2022-11-22T11:30:59.893Z,2.27
2022-11-22T11:33:30.600Z,2.13
2022-11-22T11:36:05.384Z,2.40
2022-11-22T11:38:36.693Z,2.23
2022-11-22T11:41:19.322Z,1.90
2022-11-22T11:43:47.787Z,2.43
2022-11-22T11:46:22.103Z,2.00
2022-11-22T11:48:51.058Z,2.70
2022-11-22T11:51:25.724Z,2.43
2022-11-22T11:54:01.054Z,2.50
2022-11-22T11:56:33.749Z,2.60
2022-11-22T11:59:07.240Z,2.30
2022-11-22T12:01:39.170Z,2.13
2022-11-22T12:04:15.460Z,2.70
2022-11-22T12:06:58.721Z,2.10
2022-11-22T12:09:32.324Z,2.00
2022-11-22T12:12:08.548Z,1.90
2022-11-22T12:15:09.139Z,2.17
2022-11-22T12:17:32.170Z,2.00
2022-11-22T12:20:06.858Z,2.80
2022-11-22T12:22:49.993Z,2.57
2022-11-22T12:25:34.287Z,2.03
2022-11-22T12:28:12.678Z,2.43
2022-11-22T12:30:44.101Z,2.30
2022-11-22T12:33:20.861Z,2.00
2022-11-22T12:35:50.745Z,2.10
2022-11-22T12:38:22.266Z,2.37
2022-11-22T12:40:54.274Z,2.20
2022-11-22T12:43:25.827Z,1.90
2022-11-22T12:45:56.755Z,2.00
2022-11-22T12:48:31.512Z,2.03
2022-11-22T12:51:08.686Z,2.10
2022-11-22T12:53:41.111Z,2.10
2022-11-22T12:56:17.870Z,2.27
2022-11-22T12:58:54.274Z,1.97
2022-11-22T13:01:27.199Z,1.83
2022-11-22T13:04:00.267Z,2.10
2022-11-22T13:06:35.683Z,1.87
2022-11-22T13:09:06.502Z,1.90
2022-11-22T13:11:40.863Z,1.67
2022-11-22T13:14:20.794Z,1.97
2022-11-22T13:16:50.494Z,2.13
2022-11-22T13:19:24.055Z,2.77
2022-11-22T13:22:09.026Z,2.37
2022-11-22T13:24:51.152Z,2.23
2022-11-22T13:27:23.730Z,1.80
2022-11-22T13:29:56.969Z,2.00
2022-11-22T13:32:28.790Z,2.33
2022-11-22T13:35:23.136Z,2.00
2022-11-22T13:37:54.286Z,2.00
2022-11-22T13:40:29.813Z,2.30
2022-11-22T13:43:49.304Z,2.30
2022-11-22T13:46:55.799Z,2.20
2022-11-22T13:49:39.236Z,2.00
2022-11-22T13:52:46.682Z,2.30
2022-11-22T13:55:30.002Z,2.20
2022-11-22T13:58:18.110Z,2.03
2022-11-22T14:00:46.399Z,2.17
2022-11-22T14:03:35.577Z,2.00
2022-11-22T14:06:22.669Z,1.80
2022-11-22T14:09:31.742Z,2.07
2022-11-22T14:12:19.032Z,1.73
2022-11-22T14:15:03.136Z,2.13
2022-11-22T14:17:41.732Z,1.70
2022-11-22T14:20:23.349Z,1.97
2022-11-22T14:22:57.795Z,1.70
2022-11-22T14:25:49.564Z,1.80
2022-11-22T14:28:55.449Z,1.97
2022-11-22T14:31:27.860Z,2.00
2022-11-22T14:34:18.504Z,2.10
2022-11-22T14:36:47.391Z,2.50
2022-11-22T14:40:01.480Z,2.40
2022-11-22T14:42:50.472Z,2.10
2022-11-22T14:45:26.121Z,1.90
2022-11-22T14:48:01.627Z,2.33
2022-11-22T14:50:33.949Z,2.00
2022-11-22T14:53:29.344Z,2.20
2022-11-22T14:56:04.710Z,2.00
2022-11-22T14:58:39.075Z,2.00
2022-11-22T15:01:36.907Z,2.00
2022-11-22T15:09:22.472Z,1.77
2022-11-22T15:09:23.219Z,2.00
2022-11-22T15:11:34.436Z,2.00
2022-11-22T15:14:54.962Z,1.90
2022-11-22T15:57:36.878Z,2.13
2022-11-22T16:00:10.910Z,1.97
2022-11-22T16:02:48.402Z,2.77
2022-11-22T16:06:09.193Z,2.87
2022-11-22T16:08:15.499Z,2.30
2022-11-22T16:10:45.536Z,3.03
2022-11-22T16:13:15.179Z,2.47
2022-11-22T16:15:43.265Z,2.80
2022-11-22T16:18:15.645Z,2.70
2022-11-22T16:21:00.062Z,2.50
2022-11-22T16:23:29.423Z,3.00
2022-11-22T16:26:00.592Z,3.03
2022-11-22T16:28:34.151Z,3.67
2022-11-22T16:31:05.360Z,3.10
2022-11-22T16:33:33.671Z,3.37
2022-11-22T16:36:05.723Z,3.23
2022-11-22T16:38:33.889Z,3.00
2022-11-22T16:41:02.507Z,3.27
2022-11-22T16:43:35.450Z,3.10
2022-11-22T16:46:04.273Z,3.00
2022-11-22T16:48:33.624Z,3.07
2022-11-22T16:51:07.628Z,3.50
2022-11-22T16:53:44.038Z,3.47
2022-11-22T16:56:19.301Z,3.27
2022-11-22T16:58:47.719Z,3.67
2022-11-22T17:01:17.847Z,3.80
2022-11-22T17:03:47.606Z,3.20
2022-11-22T17:06:18.761Z,3.90
2022-11-22T17:08:47.230Z,3.20
2022-11-22T17:11:18.505Z,3.77
2022-11-22T17:13:47.332Z,3.57
2022-11-22T17:16:17.886Z,3.40
2022-11-22T17:18:46.927Z,3.50
2022-11-22T17:21:22.240Z,3.50
2022-11-22T17:23:50.830Z,3.43
2022-11-22T17:26:18.994Z,3.03
2022-11-22T17:28:46.960Z,3.73
2022-11-22T17:31:16.216Z,3.20
2022-11-22T17:33:44.593Z,3.20
2022-11-22T17:36:22.051Z,3.60
2022-11-22T17:38:49.989Z,3.07
2022-11-22T17:41:17.995Z,3.10
2022-11-22T17:43:46.047Z,3.10
2022-11-22T17:46:14.075Z,3.50
2022-11-22T17:48:42.076Z,3.30
2022-11-22T17:51:12.885Z,2.80
2022-11-22T17:53:42.847Z,2.87
2022-11-22T17:56:11.890Z,3.07
2022-11-22T17:58:40.280Z,2.50
2022-11-22T18:01:10.256Z,2.83
2022-11-22T18:03:38.521Z,2.33
2022-11-22T18:06:07.134Z,2.53
2022-11-22T18:08:35.567Z,2.30
2022-11-22T18:11:05.678Z,2.27
2022-11-22T18:13:35.945Z,2.20
2022-11-22T18:16:06.490Z,5.07
2022-11-22T18:21:24.413Z,2.60
2022-11-22T18:23:52.409Z,1.97
2022-11-22T18:31:59.260Z,2.30
2022-11-22T18:34:27.892Z,2.40
2022-11-22T18:37:00.699Z,2.40
2022-11-22T18:39:31.198Z,1.77
2022-11-22T18:42:01.017Z,2.20
2022-11-22T18:44:28.942Z,2.17
2022-11-22T18:46:56.988Z,2.30
2022-11-22T18:49:25.015Z,2.10
2022-11-22T18:51:53.120Z,2.17
2022-11-22T18:54:22.112Z,2.30
2022-11-22T18:56:51.627Z,2.37
2022-11-22T18:59:20.980Z,2.17
2022-11-22T19:01:49.249Z,2.00
2022-11-22T19:04:17.346Z,2.40
2022-11-22T19:06:46.912Z,2.43
2022-11-22T19:09:35.748Z,2.80
2022-11-22T19:12:04.439Z,2.80
2022-11-22T19:14:38.377Z,2.80
2022-11-22T19:17:08.611Z,3.03
2022-11-22T19:19:37.175Z,2.87
2022-11-22T19:22:05.547Z,2.43
2022-11-22T19:24:53.836Z,2.53
2022-11-22T19:27:24.828Z,3.07
2022-11-22T19:29:55.732Z,3.37
2022-11-22T19:32:25.126Z,3.20
2022-11-22T19:34:53.940Z,3.47
2022-11-22T19:37:21.960Z,3.13
2022-11-22T19:39:53.566Z,2.70
2022-11-22T19:42:22.921Z,2.80
2022-11-22T19:44:51.693Z,3.10
2022-11-22T19:47:23.969Z,2.80
2022-11-22T19:49:52.108Z,2.60
2022-11-22T19:52:20.339Z,3.07
2022-11-22T19:54:52.927Z,2.80
2022-11-22T19:57:21.414Z,2.93
2022-11-22T19:59:49.696Z,2.73
2022-11-22T20:02:17.738Z,3.10
2022-11-22T20:04:47.267Z,2.77
2022-11-22T20:07:16.320Z,3.30
2022-11-22T20:09:46.756Z,2.93
2022-11-22T20:12:15.959Z,3.67
2022-11-22T20:14:44.595Z,2.77
2022-11-22T20:17:12.816Z,3.23
2022-11-22T20:19:41.860Z,2.80
2022-11-22T20:22:11.653Z,3.20
2022-11-22T20:24:40.008Z,3.17
2022-11-22T20:27:09.386Z,3.03
2022-11-22T20:30:00.166Z,3.17
2022-11-22T20:32:29.026Z,3.13
2022-11-22T20:34:57.480Z,3.20
2022-11-22T20:37:29.963Z,3.73
2022-11-22T20:39:59.232Z,3.23
2022-11-22T20:42:50.079Z,3.30
2022-11-22T20:45:23.702Z,3.60
2022-11-22T20:47:53.450Z,3.17
2022-11-22T20:50:22.426Z,2.87
2022-11-22T20:52:52.393Z,4.40
2022-11-22T20:55:21.600Z,3.70
2022-11-22T20:57:49.591Z,4.27
2022-11-22T21:00:20.095Z,4.23
2022-11-22T21:02:49.207Z,4.57
2022-11-22T21:05:17.361Z,4.30
2022-11-22T21:07:45.687Z,3.77
2022-11-22T21:10:15.932Z,4.60
2022-11-22T21:12:43.888Z,4.47
2022-11-22T21:15:15.259Z,5.10
2022-11-22T21:18:09.211Z,4.77
2022-11-22T21:20:55.151Z,5.00
2022-11-22T21:23:31.344Z,4.77
2022-11-22T21:26:22.422Z,5.37
2022-11-22T21:28:51.420Z,5.63
2022-11-22T21:31:20.360Z,5.47
2022-11-22T21:33:49.480Z,5.53
2022-11-22T21:36:38.665Z,5.00
2022-11-22T21:39:12.839Z,5.67
2022-11-22T21:41:43.647Z,5.73
2022-11-22T21:44:11.965Z,5.60
2022-11-22T21:46:41.404Z,6.00
2022-11-22T21:49:13.738Z,6.23
2022-11-22T21:51:42.012Z,5.63
2022-11-22T21:54:38.021Z,6.53
2022-11-22T21:57:07.927Z,6.43
2022-11-22T21:59:36.169Z,7.23
2022-11-22T22:02:04.816Z,5.93
2022-11-22T22:04:32.869Z,6.73
2022-11-22T22:07:03.420Z,6.60
2022-11-22T22:09:31.729Z,6.30
2022-11-22T22:12:00.181Z,6.53
2022-11-22T22:14:29.810Z,6.40
2022-11-22T22:16:58.258Z,7.23
2022-11-22T22:19:49.660Z,6.37
2022-11-22T22:22:17.843Z,7.43
2022-11-22T22:24:46.170Z,7.67
2022-11-22T22:27:14.217Z,7.53
2022-11-22T22:29:46.838Z,7.83
2022-11-22T22:32:37.353Z,7.97
2022-11-22T22:35:06.850Z,8.10
2022-11-22T22:37:37.649Z,8.53
2022-11-22T22:40:08.465Z,8.47
2022-11-22T22:42:36.495Z,8.17
2022-11-22T22:45:26.216Z,8.10
2022-11-22T22:47:54.274Z,8.00
2022-11-22T22:50:23.301Z,8.23
2022-11-22T22:52:52.166Z,7.33
2022-11-22T22:55:43.435Z,7.47
2022-11-22T22:58:31.727Z,8.33
2022-11-22T23:01:27.541Z,7.63
2022-11-22T23:04:16.097Z,7.40
2022-11-22T23:06:44.789Z,7.83
2022-11-22T23:09:13.255Z,7.20
2022-11-22T23:11:59.150Z,8.33
2022-11-22T23:14:49.190Z,6.90
2022-11-22T23:17:18.783Z,8.23
2022-11-22T23:19:48.563Z,8.07
2022-11-22T23:22:16.522Z,7.00
2022-11-22T23:24:45.407Z,7.43
2022-11-22T23:27:13.371Z,7.70
2022-11-22T23:29:42.698Z,7.40
2022-11-22T23:32:11.190Z,7.40
2022-11-22T23:34:43.035Z,8.30
2022-11-22T23:37:12.335Z,7.60
2022-11-22T23:39:40.516Z,7.80
2022-11-22T23:42:08.771Z,7.63
2022-11-22T23:44:37.655Z,7.73
2022-11-22T23:47:06.721Z,8.20
2022-11-22T23:49:37.935Z,6.80
2022-11-22T23:52:08.069Z,7.37
2022-11-22T23:54:35.979Z,7.57
2022-11-22T23:57:04.526Z,7.30
2022-11-22T23:59:33.131Z,6.97
